Main page
METAR-TAF:

METAR-TAF

Airports :

Foz do Iguaçu International Airport

Foz do Iguaçu, Paraná, Brazil

latitude: 25-31S, longitude: 054-35W, elevation: 180 m

Current weather observation

The report was made 27 minutes ago, at 07:00 UTC
Wind 2 kt from the East
Temperature 21°C
Humidity 88%
Pressure 1011 hPa
Visibility 10 km or more
no clouds below 1500 m and no cumulonimbus

METAR: SBFI 080700Z 09002KT CAVOK 21/19 Q1011

Time: 05:27 (07:27 UTC)

Forecast

The report was made 4 hours and 27 minutes ago, at 03:00 UTC
Forecast valid from 08 at 06 UTC to 09 at 06 UTC
Wind 5 kt from the Southeast
Visibility 10 km or more
no clouds below 1500 m and no cumulonimbus
Becoming
from 08 at 13 UTC to 08 at 14 UTC
Visibility 10 km or more
Scattered clouds at a height of 3000 ft

TAF: SBFI 080300Z 0806/0906 13005KT CAVOK TN20/0809Z TX33/0818Z BECMG 0813/0814 9999 SCT030 RMK PEC

Weather observations and forecasts of more than 4000 airports (METAR and TAF reports).

The available stations are represented by yellow and red dots on the map.

Hover mouse over dot to see the name of the station.

Then click to see weather observations and forecasts.

To change the map : click on the green buttons with a black cross to zoom in, on the green button with a dash to zoom out, or on the green arrows for adjacent maps.


METAR-TAF: